Mt. Soledad (578) Station Data

Red Flag Warning: No
Fire Weather Zone: 243
SDGE Region: Beach Cities
Lat/Lon: 32.814/-117.241

Observations

Time Wind Speed/Gust Temp(F) RH Fuel Moist Fuel Temp(F) Dewpt(F) Tmax(F) Tmin(F) Accum Precip 10-min Precip SL Press(mb)
4/30 12:00am 10 6 G 7 66° 30% 6.5% 60.15° 34° 77° 57.6° - - 1020.0
4/29 11:50pm 11 6 G 8 65° 34% 6.5% 58.88° 36° 77° 57.6° - - 1020.0
4/29 11:40pm 20 3 G 6 64° 40% 6.4% 56.62° 39° 77° 57.6° - - 1020.0
4/29 11:30pm 24 3 G 5 63° 41% 6.4% 56.6° 39° 77° 57.6° - - 1020.0
4/29 11:20pm 26 3 G 6 63° 43% 6.4% 56.71° 40° 77° 57.6° - - 1020.0
4/29 11:10pm 272 1 G 3 63° 44% 6.4% 57.58° 40° 77° 57.6° - - 1020.0
4/29 11:00pm 305 2 G 3 63° 43% 6.4% 58.65° 40° 77° 57.6° - - 1020.0
4/29 10:50pm 12 3 G 4 63° 43% 6.3% 57.37° 40° 77° 57.6° - - 1020.0
4/29 10:40pm 5 4 G 5 63° 43% 6.3% 57.73° 40° 77° 57.6° - - 1020.0
4/29 10:30pm 8 4 G 5 63° 43% 6.3% 57.9° 41° 77° 57.6° - - 1020.0
4/29 10:20pm 14 4 G 6 63° 43% 6.3% 59.04° 41° 77° 57.6° - - 1020.0
4/29 10:10pm 3 4 G 6 63° 43% 6.2% 59.99° 41° 77° 57.6° - - 1020.0
4/29 10:00pm 13 5 G 6 63° 44% 6.2% 60.28° 41° 77° 57.6° - - 1020.0
4/29 9:50pm 29 5 G 7 63° 44% 6.2% 60.26° 41° 77° 57.6° - - 1020.0
4/29 9:40pm 30 4 G 6 64° 40% 6.2% 61.25° 40° 77° 57.6° - - 1020.0
4/29 9:30pm 357 5 G 9 65° 39% 6.2% 62.73° 40° 77° 57.6° - - 1020.0
4/29 9:20pm 353 6 G 11 65° 41% 6.2% 63.24° 41° 77° 57.6° - - 1020.0
4/29 9:10pm 346 8 G 13 65° 42% 6.2% 63.68° 41° 77° 57.6° - - 1020.0
4/29 9:00pm 360 7 G 12 65° 42% 6.2% 63.47° 41° 77° 57.6° - - 1020.0
4/29 8:50pm 358 7 G 12 65° 42% 6.2% 63.45° 41° 77° 57.6° - - 1020.0
4/29 8:40pm 351 7 G 13 65° 43% 6.2% 63.77° 42° 77° 57.6° - - 1019.0
4/29 8:30pm 357 7 G 12 65° 44% 6.1% 63.41° 42° 77° 57.6° - - 1019.0
4/29 8:20pm 3 6 G 10 65° 43% 6.1% 63.33° 42° 77° 57.6° - - 1019.0
4/29 8:10pm 4 6 G 11 66° 44% 6.1% 63.91° 43° 77° 57.6° - - 1019.0
4/29 8:00pm 1 7 G 11 66° 46% 6.1% 64.41° 44° 77° 57.6° - - 1019.0
4/29 7:50pm 359 7 G 11 66° 49% 6.1% 64.75° 46° 77° 57.6° - - 1019.0
4/29 7:40pm 351 6 G 11 66° 51% 6% 65.09° 47° 77° 57.6° - - 1018.0
4/29 7:30pm 345 6 G 11 66° 50% 6% 65.6° 47° 77° 57.6° - - 1018.0
4/29 7:20pm 348 8 G 11 67° 46% 5.9% 66.44° 45° 77° 57.6° - - 1018.0
4/29 7:10pm 341 9 G 13 68° 41% 5.8% 67.65° 43° 77° 57.6° - - 1018.0
4/29 7:00pm 337 8 G 14 69° 35% 5.8% 68.77° 40° 77° 57.6° - - 1018.0
4/29 6:50pm 322 6 G 12 70° 31% 5.8% 70.4° 38° 77° 57.6° - - 1018.0
4/29 6:40pm 322 7 G 13 71° 30% 5.9% 71.89° 38° 77° 57.6° - - 1018.0
4/29 6:30pm 316 6 G 11 71° 28% 5.9% 72.83° 36° 77° 57.6° - - 1018.0
4/29 6:20pm 317 7 G 13 71° 28% 5.9% 73.36° 37° 77° 57.6° - - 1017.0
4/29 6:10pm 314 7 G 12 71° 29% 5.9% 73.54° 38° 77° 57.6° - - 1017.0
4/29 6:00pm 306 8 G 14 72° 30% 5.9% 73.72° 38° 77° 57.6° - - 1017.0
4/29 5:50pm 314 7 G 12 72° 29% 5.9% 74.91° 38° 77° 57.6° - - 1017.0
4/29 5:40pm 308 8 G 14 72° 27% 5.9% 75.11° 36° 77° 57.6° - - 1017.0
4/29 5:30pm 308 10 G 16 72° 23% 5.9% 75.51° 33° 77° 57.6° - - 1017.0
4/29 5:20pm 309 8 G 15 73° 22% 5.9% 75.67° 32° 77° 57.6° - - 1017.0
4/29 5:10pm 296 6 G 12 73° 21% 5.9% 76.89° 31° 77° 57.6° - - 1017.0
4/29 5:00pm 300 6 G 13 73° 22% 6% 77.1° 32° 77° 57.6° - - 1017.0
4/29 4:50pm 291 7 G 16 74° 21% 6% 77.38° 31° 77° 57.6° - - 1017.0
4/29 4:40pm 295 8 G 15 75° 17% 6% 78.51° 27° 77° 57.6° - - 1017.0
4/29 4:30pm 286 7 G 15 75° 13% 6% 79.34° 22° 77° 57.6° - - 1017.0
4/29 4:20pm 284 7 G 14 76° 14% 6% 79.41° 22° 77° 57.6° - - 1017.0
4/29 4:10pm 300 8 G 15 75° 16% 6.1% 79.49° 26° 77° 57.6° - - 1017.0
4/29 4:00pm 299 8 G 15 75° 15% 6.1% 78.97° 25° 77° 57.6° - - 1017.0
4/29 3:50pm 281 7 G 15 75° 15% 6.1% 80.4° 24° 76.9° 57.6° - - 1017.0
4/29 3:40pm 288 7 G 15 76° 15% 6.2% 80.6° 26° 76.9° 57.6° - - 1017.0
4/29 3:30pm 280 6 G 12 75° 16% 6.2% 81.2° 25° 76.6° 57.6° - - 1017.0
4/29 3:20pm 284 8 G 15 74° 17% 6.2% 81.4° 26° 76.6° 57.6° - - 1017.0
4/29 3:10pm 300 10 G 17 74° 17% 6.2% 80.3° 26° 76.6° 57.6° - - 1017.0
4/29 3:00pm 299 9 G 14 74° 16% 6.3% 81° 25° 76.6° 57.6° - - 1017.0
4/29 2:50pm 300 8 G 15 75° 16% 6.3% 81.5° 25° 76.6° 57.6° - - 1017.0
4/29 2:40pm 291 7 G 13 75° 16% 6.3% 82.4° 26° 76.6° 57.6° - - 1017.0
4/29 2:30pm 299 7 G 15 75° 17% 6.4% 84.5° 27° 76.6° 57.6° - - 1017.0
4/29 2:20pm 275 6 G 11 75° 17% 6.4% 86.4° 28° 76.6° 57.6° - - 1017.0
4/29 2:10pm 282 6 G 11 75° 18% 6.5% 86.8° 29° 76.6° 57.6° - - 1017.0
4/29 2:00pm 273 6 G 12 74° 20% 6.5% 87.5° 31° 76.6° 57.6° - - 1017.0
4/29 1:50pm 256 7 G 13 74° 18% 6.5% 86.6° 28° 76.6° 57.6° - - 1017.0
4/29 1:40pm 261 6 G 11 75° 19% 6.5% 87° 30° 76.6° 57.6° - - 1017.0
4/29 1:30pm 241 6 G 14 73° 25% 6.6% 86° 36° 76.6° 57.6° - - 1017.0
4/29 1:20pm 224 5 G 10 74° 26% 6.6% 86.6° 37° 76.6° 57.6° - - 1017.0
4/29 1:10pm 238 5 G 11 76° 20% 6.5% 79.6° 32° 76.6° 57.6° - - 1017.0
4/29 1:00pm 262 5 G 10 75° 17% 6.5% 79.16° 27° 76.6° 57.6° - - 1017.0
4/29 12:50pm 253 5 G 11 75° 15% 6.5% 79.28° 24° 75.7° 57.6° - - 1017.0
4/29 12:40pm 266 6 G 10 75° 11% 6.5% 81.8° 17° 75.7° 57.6° - - 1017.0
4/29 12:30pm 244 5 G 10 75° 11% 6.8% 86.2° 17° 75.7° 57.6° - - 1018.0
4/29 12:20pm 258 5 G 10 74° 11% 6.8% 85.5° 17° 75.5° 57.6° - - 1018.0
4/29 12:10pm 246 6 G 10 74° 12% 6.8% 83.5° 19° 75.5° 57.6° - - 1018.0
4/29 12:00pm 258 5 G 8 74° 13% 6.9% 82.8° 20° 75.5° 57.6° - - 1018.0
4/29 11:50am 251 6 G 12 74° 13% 6.9% 81.2° 20° 75.5° 57.6° - - 1018.0
4/29 11:40am 248 4 G 13 74° 12% 7% 82.5° 19° 75.5° 57.6° - - 1017.0
4/29 11:30am 242 5 G 12 74° 12% 7% 81.5° 17° 75.1° 57.6° - - 1017.0
4/29 11:20am 244 5 G 11 74° 13% 7.2% 81.3° 19° 75.1° 57.6° - - 1017.0
4/29 11:10am 273 5 G 9 74° 12% 7.2% 80.9° 19° 75.1° 57.6° - - 1017.0
4/29 11:00am 244 4 G 10 74° 12% 7.3% 83.8° 18° 75.1° 57.6° - - 1017.0
4/29 10:50am 251 3 G 7 74° 13% 7.4% 85.8° 19° 74.8° 57.6° - - 1017.0
4/29 10:40am 253 4 G 8 73° 14% 7.5% 84.9° 21° 74.1° 57.6° - - 1017.0
4/29 10:30am 245 4 G 7 73° 15% 7.6% 84.8° 22° 74.1° 57.6° - - 1017.0
4/29 10:20am 229 4 G 8 73° 17% 7.7% 85.9° 25° 74.1° 57.6° - - 1017.0
4/29 10:10am 182 4 G 8 73° 15% 7.8% 85.2° 22° 74.1° 57.6° - - 1017.0
4/29 10:00am 184 3 G 7 73° 19% 7.9% 86° 28° 74.1° 57.6° - - 1017.0
4/29 9:50am 203 2 G 6 73° 18% 8% 86° 27° 74.1° 57.6° - - 1017.0
4/29 9:40am 208 3 G 6 72° 21% 8.1% 85.5° 30° 74.1° 57.6° - - 1017.0
4/29 9:30am 231 3 G 5 72° 22% 8.2% 86.3° 31° 74.1° 57.6° - - 1017.0
4/29 9:20am 205 3 G 4 72° 22% 8.2% 87.5° 31° 74.1° 57.6° - - 1017.0
4/29 9:10am 221 2 G 4 72° 24% 8.3% 88.2° 33° 74.1° 57.6° - - 1017.0
4/29 9:00am 304 1 G 3 73° 17% 8.4% 89.1° 24° 74.1° 57.6° - - 1017.0
4/29 8:50am 357 3 G 6 72° 14% 8.5% 87.8° 20° 72.6° 57.6° - - 1017.0
4/29 8:40am 35 4 G 7 71° 15% 8.6% 88.2° 21° 72.2° 57.6° - - 1017.0
4/29 8:30am 45 3 G 6 71° 15% 8.8% 86.7° 21° 72.2° 57.6° - - 1016.0
4/29 8:20am 14 4 G 6 71° 14% 8.9% 86° 19° 71.1° 57.6° - - 1016.0
4/29 8:10am 9 3 G 6 70° 14% 9% 85.7° 18° 71.1° 57.6° - - 1016.0
4/29 8:00am 5 3 G 6 70° 14% 9.1% 86.2° 19° 70.6° 57.6° - - 1016.0
4/29 7:50am 3 4 G 5 69° 15% 9.3% 85.2° 19° 69.8° 57.6° - - 1016.0
4/29 7:40am 4 3 G 5 69° 16% 9.4% 83.1° 21° 69.5° 57.6° - - 1016.0
4/29 7:30am 13 3 G 5 68° 16% 9.5% 81.3° 20° 68.9° 57.6° - - 1016.0
4/29 7:20am 13 4 G 5 68° 15% 9.6% 78.58° 19° 68.9° 57.6° - - 1016.0
4/29 7:10am 13 4 G 5 68° 14% 9.6% 74.64° 18° 68.6° 57.6° - - 1016.0
4/29 7:00am 1 4 G 5 68° 14% 9.6% 70.07° 17° 68.4° 57.6° - - 1016.0
4/29 6:50am 5 3 G 5 67° 14% 9.6% 66.21° 17° 68° 57.6° - - 1015.0
4/29 6:40am 1 4 G 6 67° 14% 9.6% 61.22° 17° 67.4° 57.6° - - 1015.0
4/29 6:30am 11 5 G 6 66° 15% 9.5% 57.38° 17° 67.3° 57.6° - - 1015.0
4/29 6:20am 5 4 G 5 66° 15% 9.6% 56.94° 18° 67.3° 57.6° - - 1015.0
4/29 6:10am 357 4 G 6 66° 16% 9.7% 57.94° 18° 67.3° 57.6° - - 1015.0
4/29 6:00am 9 4 G 6 66° 16% 9.7% 58.17° 18° 67.3° 57.6° - - 1015.0
4/29 5:50am 5 5 G 7 66° 16% 9.9% 58.9° 19° 67.3° 57.6° - - 1015.0
4/29 5:40am 3 4 G 6 66° 17% 10% 59.42° 20° 67.3° 57.6° - - 1015.0
4/29 5:30am 4 5 G 7 66° 18% 10.1% 59.82° 21° 67.3° 57.6° - - 1014.0
4/29 5:20am 1 5 G 8 66° 17% 10.2% 60.02° 21° 67.3° 57.6° - - 1014.0
4/29 5:10am 8 4 G 8 66° 19% 10.3% 59.05° 23° 67.3° 57.6° - - 1014.0
4/29 5:00am 13 5 G 7 66° 21% 10.4% 59.32° 24° 67.3° 57.6° - - 1014.0
4/29 4:50am 7 5 G 7 66° 21% 10.6% 59.51° 24° 67.3° 57.6° - - 1014.0
4/29 4:40am 5 5 G 8 66° 21% 10.7% 59.9° 25° 67.3° 57.6° - - 1014.0
4/29 4:30am 11 5 G 9 66° 20% 10.9% 60.11° 24° 67.3° 57.6° - - 1014.0
4/29 4:20am 7 5 G 8 67° 20% 11% 60.21° 24° 67.3° 57.6° - - 1014.0
4/29 4:10am 359 4 G 7 66° 21% 11.3% 60.19° 25° 67.1° 57.6° - - 1014.0
4/29 4:00am 0 4 G 9 66° 23% 11.4% 59.15° 27° 66.5° 57.6° - - 1013.0
4/29 3:50am 6 5 G 8 66° 24% 11.7% 58.36° 28° 66.5° 57.6° - - 1013.0
4/29 3:40am 0 4 G 7 62° 38% 11.9% 55.78° 35° 65.8° 57.6° - - 1013.0
4/29 3:30am 327 0 G 1 60° 59% 12% 53.8° 45° 65.8° 57.6° - - 1013.0
4/29 3:20am 243 1 G 4 64° 41% 12.1% 56.75° 39° 65.8° 57.6° - - 1013.0
4/29 3:10am 351 4 G 6 64° 40% 12.3% 57.66° 39° 65.5° 57.6° - - 1013.0
4/29 3:00am 349 5 G 6 63° 55% 12.5% 56.66° 46° 63.6° 57.6° - - 1013.0
4/29 2:50am 351 4 G 6 62° 61% 12.6% 56.17° 48° 62.7° 57.6° - - 1013.0
4/29 2:40am 355 5 G 6 61° 63% 12.6% 56.1° 49° 62° 57.6° - - 1013.0
4/29 2:30am 356 5 G 7 61° 64% 12.6% 56.34° 49° 61.9° 57.6° - - 1013.0
4/29 2:20am 360 4 G 6 61° 65% 12.7% 56.27° 49° 61.5° 57.6° - - 1013.0
4/29 2:10am 3 5 G 8 61° 67% 12.7% 56.87° 50° 61.3° 57.6° - - 1013.0
4/29 2:00am 359 7 G 10 60° 72% 12.8% 57.21° 51° 61.3° 57.6° - - 1013.0
4/29 1:50am 7 6 G 8 59° 81% 12.8% 56.89° 54° 61.3° 57.6° - - 1013.0
4/29 1:40am 17 5 G 8 60° 81% 12.8% 56.64° 54° 61.3° 57.6° - - 1013.0
4/29 1:30am 3 6 G 8 60° 81% 12.7% 56.6° 54° 61.3° 57.6° - - 1013.0
4/29 1:20am 21 4 G 7 59° 81% 12.5% 55° 54° 61.3° 57.6° - - 1013.0
4/29 1:10am 24 2 G 4 60° 81% 12.4% 55.26° 54° 61.3° 57.6° - - 1013.0
4/29 1:00am 28 4 G 5 59° 82% 12.4% 55.93° 53° 61.3° 57.6° - - 1013.0
4/29 12:50am 39 3 G 5 58° 84% 12.3% 55.37° 53° 61.3° 57.6° - - 1013.0
4/29 12:40am 54 1 G 3 58° 83% 12.1% 55.2° 53° 61.3° 57.8° - - 1013.0
4/29 12:30am 4 2 G 3 59° 80% 12.1% 56.6° 53° 61.3° 58.1° - - 1013.0
4/29 12:20am 325 3 G 3 60° 78% 12.1% 56.92° 54° 61.3° 59.3° - - 1012.0
4/29 12:10am 302 2 G 3 60° 79% 12% 57.32° 54° 61.3° 59.3° - - 1012.0
4/29 12:00am 321 2 G 4 59° 82% 12% 57.57° 54° 70.8° 57.3° - - 1013.0
4/28 11:50pm 306 2 G 3 59° 84% 12% 58.06° 55° 70.8° 57.3° - - 1012.0
4/28 11:40pm 325 2 G 3 59° 84% 11.9% 57.21° 55° 70.8° 57.3° - - 1012.0
4/28 11:30pm 284 2 G 3 60° 84% 11.8% 58.19° 55° 70.8° 57.3° - - 1012.0
4/28 11:20pm 269 0 G 1 60° 82% 11.7% 56.57° 54° 70.8° 57.3° - - 1012.0
4/28 11:10pm 357 0 G 1 60° 81% 11.5% 55.71° 54° 70.8° 57.3° - - 1012.0
4/28 11:00pm 293 1 G 2 59° 80% 11.4% 55.84° 53° 70.8° 57.3° - - 1012.0
4/28 10:50pm 222 1 G 3 60° 78% 11.3% 57.17° 53° 70.8° 57.3° - - 1012.0
4/28 10:40pm 327 2 G 3 60° 78% 11.3% 57.59° 54° 70.8° 57.3° - - 1012.0
4/28 10:30pm 303 2 G 2 61° 77% 11.2% 57.66° 54° 70.8° 57.3° - - 1012.0
4/28 10:20pm 252 1 G 2 61° 76% 11.1% 57.55° 53° 70.8° 57.3° - - 1012.0
4/28 10:10pm 222 1 G 2 61° 75% 11.1% 57.87° 53° 70.8° 57.3° - - 1012.0
4/28 10:00pm 332 1 G 3 61° 75% 11% 57.47° 54° 70.8° 57.3° - - 1012.0
4/28 9:50pm 342 2 G 3 61° 78% 10.9% 57.07° 54° 70.8° 57.3° - - 1012.0
4/28 9:40pm 11 1 G 1 61° 80% 10.7% 56.58° 54° 70.8° 57.3° - - 1012.0
4/28 9:30pm 309 0 G 1 60° 79% 10.6% 56.54° 54° 70.8° 57.3° - - 1012.0
4/28 9:20pm 11 0 G 1 61° 78% 10.5% 57.22° 54° 70.8° 57.3° - - 1012.0
4/28 9:10pm 339 1 G 1 61° 78% 10.4% 58.3° 55° 70.8° 57.3° - - 1012.0
4/28 9:00pm 335 1 G 2 61° 78% 10.4% 59.11° 54° 70.8° 57.3° - - 1011.0
4/28 8:50pm 281 1 G 2 61° 78% 10.3% 60.38° 54° 70.8° 57.3° - - 1011.0
4/28 8:40pm 306 1 G 3 62° 77% 10.2% 60.22° 54° 70.8° 57.3° - - 1011.0
4/28 8:30pm 278 2 G 3 62° 76% 10.2% 61.8° 54° 70.8° 57.3° - - 1011.0
4/28 8:20pm 242 2 G 3 62° 74% 10.1% 61.58° 54° 70.8° 57.3° - - 1011.0
4/28 8:10pm 253 2 G 3 63° 69% 10% 61.34° 53° 70.8° 57.3° - - 1011.0
4/28 8:00pm 320 1 G 4 64° 63% 9.9% 60.65° 51° 70.8° 57.3° - - 1011.0
4/28 7:50pm 18 0 G 1 64° 64% 9.7% 60.28° 52° 70.8° 57.3° - - 1011.0
4/28 7:40pm 212 0 G 1 64° 64% 9.7% 62.14° 52° 70.8° 57.3° - - 1010.0
4/28 7:30pm 347 1 G 3 64° 63% 9.7% 62.71° 52° 70.8° 57.3° - - 1011.0
4/28 7:20pm 330 2 G 5 65° 63% 9.7% 64.37° 52° 70.8° 57.3° - - 1010.0
4/28 7:10pm 351 2 G 5 64° 65% 9.7% 64.55° 53° 70.8° 57.3° - - 1011.0
4/28 7:00pm 360 2 G 4 65° 65% 9.6% 65.5° 53° 70.8° 57.3° - - 1010.0
4/28 6:50pm 327 5 G 9 65° 65% 9.6% 66.86° 53° 70.8° 57.3° - - 1010.0
4/28 6:40pm 334 5 G 9 66° 62% 9.6% 67.45° 52° 70.8° 57.3° - - 1010.0
4/28 6:30pm 314 4 G 10 67° 59% 9.6% 69.69° 52° 70.8° 57.3° - - 1010.0
4/28 6:20pm 304 6 G 13 66° 57% 9.6% 69.48° 51° 70.8° 57.3° - - 1010.0
4/28 6:10pm 304 8 G 12 66° 56% 9.6% 69.24° 50° 70.8° 57.3° - - 1010.0
4/28 6:00pm 301 6 G 12 66° 57% 9.6% 69.65° 51° 70.8° 57.3° - - 1010.0